ADDS METAR Data INFO
IDs: Format: Raw Decoded Include TAF

Data at: 0503 UTC 23 May 2017

KDAL 230453Z 14011KT 10SM FEW050 FEW210 BKN250 19/16 A2992 RMK AO2 SLP127 FRQ LTGIC DSNT NW CB DSNT NW T01940161
KDAL 230353Z 15013KT 10SM FEW050 FEW200 BKN250 20/16 A2993 RMK AO2 SLP128 FRQ LTGIC DSNT NW CB DSNT NW T02000161
KDAL 230253Z 14011KT 10SM FEW050 FEW200 OVC250 21/16 A2992 RMK AO2 SLP128 TCU DSNT SW T02110161 53006
KDAL 230153Z 15013KT 10SM FEW050 FEW200 OVC300 22/16 A2991 RMK AO2 SLP122 T02220156
KDAL 230053Z 14009KT 10SM FEW040 FEW065 FEW200 BKN300 23/16 A2990 RMK AO2 SLP121 T02330156
KDAL 222353Z 11010KT 10SM SCT043 SCT065 BKN300 24/16 A2991 RMK AO2 SLP121 T02440156 10261 20244 58014
KDAL 222253Z 10006KT 10SM FEW045 BKN065 BKN300 25/16 A2992 RMK AO2 SLP125 T02500156
KDAL 222153Z 12008KT 10SM BKN042 BKN065 24/16 A2994 RMK AO2 SLP132 T02440156
KDAL 222053Z 12011KT 10SM BKN045 BKN065 26/15 A2995 RMK AO2 SLP135 T02560150 56029
KDAL 221953Z VRB05KT 10SM BKN040 BKN150 26/16 A2997 RMK AO2 SLP142 T02610156
KDAL 221853Z 08008KT 10SM BKN036 BKN150 25/16 A2999 RMK AO2 SLP150 T02500156
KDAL 221753Z 10005KT 10SM SCT035 BKN150 24/15 A3003 RMK AO2 SLP164 T02440150 10244 20172 58015
KDAL 221653Z 10006KT 10SM FEW030 FEW150 23/14 A3006 RMK AO2 SLP174 T02330139
KDAL 221553Z 11010KT 10SM FEW026 SCT150 SCT250 22/14 A3007 RMK AO2 SLP178 T02170144
KDAL 221453Z 10011KT 10SM FEW021 FEW110 BKN150 21/15 A3008 RMK AO2 SLP180 T02060150 56003 $
KDAL 221353Z 09010KT 10SM FEW020 FEW110 BKN150 19/15 A3008 RMK AO2 SLP181 T01940150 $
KDAL 221253Z 09005KT 10SM FEW020 FEW110 BKN160 18/16 A3007 RMK AO2 SLP177 T01830156 $
KDAL 221237Z 11005KT 10SM FEW020 SCT110 BKN160 18/16 A3007 RMK AO2 T01780156 $
KDAL 221220Z 12006KT 10SM BKN020 BKN110 BKN160 18/15 A3008 RMK AO2 T01780150 $
KDAL 221153Z 13005KT 10SM FEW025 FEW110 BKN160 17/15 A3009 RMK AO2 SLP183 60036 70045 T01720150 10200 20172 55002 $
KDAL 221053Z 10007KT 10SM SCT025 SCT050 BKN110 18/15 A3008 RMK AO2 RAE34 SLP181 P0002 T01780150 $
KDAL 220953Z 12005KT 7SM -RA FEW020 FEW050 OVC110 18/16 A3009 RMK AO2 SLP184 P0004 T01780156 $
KDAL 220853Z 15007KT 10SM -RA BKN110 18/16 A3010 RMK AO2 SLP186 P0003 60030 T01830161 58006 $
KDAL 220753Z 12005KT 8SM -RA FEW020 OVC120 19/17 A3011 RMK AO2 SLP189 P0004 T01890167 $
KDAL 220653Z 34003KT 7SM -RA FEW090 OVC110 19/17 A3011 RMK AO2 SLP190 P0023 T01890172 $
KDAL 220553Z 21006KT 10SM -RA BKN075 OVC120 20/16 A3011 RMK AO2 RAB0458E13B44 SLP192 P0000 60000 T02000161 10256 20200 402720167 50008 $
KDAL 220453Z 16008KT 10SM OVC070 23/12 A3014 RMK AO2 SLP200 OCNL LTGIC DSNT SE-SW CB DSNT SE-SW T02280117 $
KDAL 220353Z 14007KT 10SM BKN070 OVC110 23/12 A3012 RMK AO2 SLP195 OCNL LTGIC DSNT S CB DSNT S T02330122 $
KDAL 220253Z 00000KT 10SM FEW060 SCT110 OVC180 24/12 A3009 RMK AO2 SLP184 FRQ LTGICCCCG CB DSNT S-SW MOV NE T02390122 53003 $
KDAL 220153Z 10005KT 10SM FEW060 BKN110 OVC250 24/12 A3009 RMK AO2 SLP183 FRQ LTGICCC CB DSNT S-SW MOV NE T02440117 $
KDAL 220053Z 06007KT 10SM FEW060 SCT110 OVC250 24/11 A3006 RMK AO2 SLP172 T02440106 $
KDAL 212353Z 06007KT 10SM FEW060 BKN100 OVC250 26/11 A3008 RMK AO2 SLP180 T02560111 10272 20239 57003 $
KDAL 212253Z 06010KT 10SM SCT100 OVC250 26/11 A3008 RMK AO2 SLP180 T02560106 $
KDAL 212153Z COR 07005KT 10SM FEW080 FEW100 OVC250 26/10 A3009 RMK AO2 SLP183 CB DSNT SE MOV E T02610100 $
KDAL 212053Z 06011KT 10SM FEW080 SCT100 BKN250 26/10 A3009 RMK AO2 SLP183 T02610100 56021 $
KDAL 211953Z 09009KT 10SM FEW080 SCT110 BKN250 26/09 A3011 RMK AO2 SLP190 SCT V BKN T02610094 $
KDAL 211853Z 07008G20KT 10SM FEW075 FEW120 SCT250 26/09 A3012 RMK AO2 SLP194 T02560094 $
KDAL 211753Z 07008KT 10SM FEW055 SCT120 BKN250 24/09 A3015 RMK AO2 SLP204 60009 T02390089 10244 20167 50003 $


Page loaded:  05:03 UTC  |   10:03 PM Pacific  |   11:03 PM Mountain  |   12:03 AM Central  |   01:03 AM Eastern

 

ADVISORIES

FORECASTS

FORECASTS

OBSERVATIONS

USER TOOLS

ABOUT US